createdAt,value
2018-08-10T00:01:50.116Z,3.93
2018-08-10T00:04:18.719Z,3.60
2018-08-10T00:06:47.721Z,3.87
2018-08-10T00:09:16.325Z,3.70
2018-08-10T00:11:45.407Z,3.97
2018-08-10T00:14:14.450Z,3.70
2018-08-10T00:16:43.448Z,3.50
2018-08-10T00:19:12.500Z,3.50
2018-08-10T00:21:41.600Z,3.40
2018-08-10T00:24:10.648Z,3.55
2018-08-10T00:26:39.737Z,3.37
2018-08-10T00:29:08.752Z,3.80
2018-08-10T00:31:37.823Z,3.00
2018-08-10T00:34:06.968Z,3.10
2018-08-10T00:36:36.090Z,3.20
2018-08-10T00:39:08.774Z,3.33
2018-08-10T00:41:37.980Z,2.90
2018-08-10T00:44:06.980Z,3.00
2018-08-10T00:46:35.950Z,3.37
2018-08-10T00:49:05.093Z,2.97
2018-08-10T00:51:34.274Z,2.90
2018-08-10T00:54:03.322Z,3.13
2018-08-10T00:56:32.320Z,3.40
2018-08-10T00:59:01.347Z,3.00
2018-08-10T01:01:30.336Z,3.50
2018-08-10T01:03:59.296Z,3.00
2018-08-10T01:06:28.498Z,3.37
2018-08-10T01:08:57.604Z,3.10
2018-08-10T01:11:26.632Z,3.57
2018-08-10T01:13:55.667Z,2.80
2018-08-10T01:16:24.542Z,2.87
2018-08-10T01:18:53.324Z,3.10
2018-08-10T01:21:22.262Z,3.13
2018-08-10T01:23:50.720Z,2.67
2018-08-10T01:26:19.303Z,3.10
2018-08-10T01:28:47.927Z,3.23
2018-08-10T01:31:16.486Z,3.17
2018-08-10T01:33:44.988Z,2.93
2018-08-10T01:36:13.469Z,3.10
2018-08-10T01:38:41.974Z,3.00
2018-08-10T01:41:10.552Z,3.20
2018-08-10T01:43:39.137Z,2.60
2018-08-10T01:46:07.659Z,2.70
2018-08-10T01:48:36.167Z,2.90
2018-08-10T01:51:04.695Z,2.60
2018-08-10T01:53:33.363Z,2.30
2018-08-10T01:56:01.909Z,2.20
2018-08-10T01:58:30.379Z,2.40
2018-08-10T02:00:58.964Z,2.10
2018-08-10T02:03:27.470Z,2.10
2018-08-10T02:05:56.042Z,2.23
2018-08-10T02:08:24.717Z,2.50
2018-08-10T02:10:53.239Z,2.43
2018-08-10T02:13:21.739Z,2.10
2018-08-10T02:15:50.312Z,2.20
2018-08-10T02:18:18.793Z,2.40
2018-08-10T02:20:47.321Z,2.40
2018-08-10T02:23:15.790Z,2.03
2018-08-10T02:25:44.388Z,2.47
2018-08-10T02:28:12.879Z,1.83
2018-08-10T02:30:41.457Z,2.10
2018-08-10T02:33:10.566Z,2.10
2018-08-10T02:35:39.046Z,1.90
2018-08-10T02:38:07.549Z,2.00
2018-08-10T02:40:36.115Z,2.27
2018-08-10T02:43:04.589Z,2.17
2018-08-10T02:45:33.080Z,2.40
2018-08-10T02:48:01.616Z,2.57
2018-08-10T02:50:30.145Z,1.97
2018-08-10T02:52:58.677Z,2.20
2018-08-10T02:55:27.222Z,1.90
2018-08-10T02:57:55.790Z,2.50
2018-08-10T03:00:24.360Z,1.80
2018-08-10T03:02:52.937Z,1.80
2018-08-10T03:05:21.555Z,1.50
2018-08-10T03:07:50.027Z,1.30
2018-08-10T03:10:18.544Z,1.43
2018-08-10T03:12:47.055Z,1.50
2018-08-10T03:15:16.647Z,1.40
2018-08-10T03:17:45.683Z,1.27
2018-08-10T03:20:14.322Z,1.40
2018-08-10T03:22:42.832Z,1.30
2018-08-10T03:25:12.710Z,1.37
2018-08-10T03:27:41.292Z,1.50
2018-08-10T03:30:11.117Z,1.40
2018-08-10T03:32:39.780Z,1.30
2018-08-10T03:35:08.295Z,1.30
2018-08-10T03:37:37.318Z,1.50
2018-08-10T03:40:07.562Z,1.40
2018-08-10T03:42:36.037Z,1.30
2018-08-10T03:45:05.344Z,1.30
2018-08-10T03:47:33.931Z,1.43
2018-08-10T03:50:02.475Z,1.30
2018-08-10T03:52:31.014Z,1.30
2018-08-10T03:54:59.527Z,1.50
2018-08-10T03:57:28.174Z,1.20
2018-08-10T03:59:56.689Z,1.00
2018-08-10T04:02:25.183Z,1.37
2018-08-10T04:04:53.774Z,1.20
2018-08-10T04:07:22.260Z,1.40
2018-08-10T04:09:50.778Z,1.00
2018-08-10T04:12:19.263Z,1.00
2018-08-10T04:14:47.798Z,0.83
2018-08-10T04:17:25.177Z,0.90
2018-08-10T04:19:54.880Z,1.20
2018-08-10T04:22:24.626Z,0.90
2018-08-10T04:24:53.454Z,0.70
2018-08-10T04:27:22.263Z,1.20
2018-08-10T04:29:50.956Z,1.00
2018-08-10T04:32:19.849Z,1.10
2018-08-10T04:34:48.598Z,0.90
2018-08-10T04:37:17.445Z,0.93
2018-08-10T04:39:46.189Z,1.00
2018-08-10T04:42:14.943Z,1.13
2018-08-10T04:44:44.600Z,1.00
2018-08-10T04:47:13.217Z,1.07
2018-08-10T04:49:41.845Z,1.43
2018-08-10T04:52:10.611Z,0.90
2018-08-10T04:54:39.149Z,0.80
2018-08-10T04:57:07.612Z,0.90
2018-08-10T04:59:36.160Z,1.07
2018-08-10T05:02:05.486Z,0.70
2018-08-10T05:04:34.093Z,0.80
2018-08-10T05:07:02.676Z,0.77
2018-08-10T05:09:31.163Z,0.83
2018-08-10T05:11:59.668Z,0.87
2018-08-10T05:14:28.214Z,0.87
2018-08-10T05:16:56.710Z,1.00
2018-08-10T05:19:25.207Z,0.87
2018-08-10T05:21:53.819Z,5.60
2018-08-10T05:24:22.330Z,0.97
2018-08-10T05:26:50.863Z,1.00
2018-08-10T05:29:19.374Z,0.53
2018-08-10T05:31:47.925Z,1.00
2018-08-10T05:34:16.512Z,0.87
2018-08-10T05:36:45.018Z,0.73
2018-08-10T05:39:14.816Z,0.93
2018-08-10T05:41:43.311Z,1.30
2018-08-10T05:44:11.838Z,1.10
2018-08-10T05:46:40.366Z,0.90
2018-08-10T05:49:08.838Z,1.13
2018-08-10T05:51:37.389Z,1.37
2018-08-10T05:54:07.597Z,1.17
2018-08-10T05:56:36.103Z,1.17
2018-08-10T05:59:04.651Z,1.00
2018-08-10T06:01:33.313Z,1.10
2018-08-10T06:04:01.943Z,1.10
2018-08-10T06:06:30.335Z,1.20
2018-08-10T06:08:58.844Z,1.10
2018-08-10T06:11:27.344Z,1.20
2018-08-10T06:13:56.143Z,1.17
2018-08-10T06:16:24.659Z,1.53
2018-08-10T06:18:53.251Z,1.27
2018-08-10T06:21:21.767Z,1.77
2018-08-10T06:23:50.469Z,1.73
2018-08-10T06:26:18.934Z,1.53
2018-08-10T06:28:47.446Z,1.30
2018-08-10T06:31:16.090Z,1.30
2018-08-10T06:33:44.813Z,1.40
2018-08-10T06:36:13.308Z,1.20
2018-08-10T06:38:42.668Z,1.40
2018-08-10T06:41:11.557Z,1.30
2018-08-10T06:43:40.029Z,1.47
2018-08-10T06:46:08.846Z,1.20
2018-08-10T06:48:37.437Z,1.10
2018-08-10T06:51:06.058Z,1.07
2018-08-10T06:53:34.856Z,1.17
2018-08-10T06:56:04.800Z,0.70
2018-08-10T06:58:34.136Z,0.87
2018-08-10T07:01:02.778Z,1.20
2018-08-10T07:03:31.273Z,1.07
2018-08-10T07:06:00.080Z,1.33
2018-08-10T07:08:28.566Z,1.10
2018-08-10T07:10:57.323Z,2.30
2018-08-10T07:13:26.013Z,1.40
2018-08-10T07:15:54.621Z,1.00
2018-08-10T07:18:23.120Z,0.90
2018-08-10T07:20:51.633Z,0.90
2018-08-10T07:23:20.146Z,1.30
2018-08-10T07:26:24.582Z,1.13
2018-08-10T07:28:53.303Z,1.07
2018-08-10T07:31:22.194Z,1.20
2018-08-10T07:33:51.042Z,1.30
2018-08-10T07:36:19.661Z,1.60
2018-08-10T07:38:48.249Z,1.13
2018-08-10T07:41:16.827Z,1.10
2018-08-10T07:43:45.385Z,1.03
2018-08-10T07:46:14.136Z,1.13
2018-08-10T07:48:47.142Z,1.13
2018-08-10T07:51:16.947Z,1.30
2018-08-10T07:53:45.823Z,1.27
2018-08-10T07:56:14.721Z,1.20
2018-08-10T07:58:43.368Z,1.23
2018-08-10T08:01:12.027Z,1.10
2018-08-10T08:03:40.507Z,1.47
2018-08-10T08:06:09.199Z,1.50
2018-08-10T08:08:37.679Z,1.20
2018-08-10T08:11:06.383Z,1.20
2018-08-10T08:13:34.906Z,1.13
2018-08-10T08:16:03.514Z,1.40
2018-08-10T08:18:32.031Z,1.30
2018-08-10T08:21:13.161Z,1.30
2018-08-10T08:23:41.832Z,1.20
2018-08-10T08:26:10.406Z,1.30
2018-08-10T08:28:39.097Z,1.20
2018-08-10T08:31:07.783Z,1.00
2018-08-10T08:33:47.755Z,1.10
2018-08-10T08:36:16.419Z,1.40
2018-08-10T08:40:29.065Z,1.20
2018-08-10T08:42:57.669Z,1.10
2018-08-10T08:46:13.800Z,1.43
2018-08-10T08:48:47.429Z,1.30
2018-08-10T08:51:19.633Z,1.13
2018-08-10T08:53:52.810Z,1.10
2018-08-10T08:56:21.645Z,1.10
2018-08-10T08:58:50.750Z,1.20
2018-08-10T09:01:19.274Z,1.33
2018-08-10T09:05:56.364Z,1.00
2018-08-10T09:08:24.982Z,1.13
2018-08-10T09:10:54.839Z,1.10
2018-08-10T09:13:23.723Z,1.47
2018-08-10T09:15:52.425Z,1.40
2018-08-10T09:18:21.013Z,1.17
2018-08-10T09:20:49.566Z,1.10
2018-08-10T09:23:18.134Z,1.50
2018-08-10T09:25:46.723Z,1.20
2018-08-10T09:28:15.325Z,1.30
2018-08-10T09:30:44.108Z,2.07
2018-08-10T09:33:12.742Z,1.87
2018-08-10T09:35:41.455Z,0.90
2018-08-10T09:38:10.028Z,1.40
2018-08-10T09:40:38.551Z,0.97
2018-08-10T09:43:07.132Z,1.30
2018-08-10T09:45:35.828Z,0.90
2018-08-10T09:48:04.457Z,1.10
2018-08-10T09:50:33.484Z,1.30
2018-08-10T09:53:05.272Z,1.17
2018-08-10T09:55:35.861Z,1.23
2018-08-10T09:58:06.533Z,1.00
2018-08-10T10:00:40.481Z,1.10
2018-08-10T10:03:15.407Z,1.33
2018-08-10T10:05:44.654Z,1.30
2018-08-10T10:08:13.739Z,1.10
2018-08-10T10:10:42.405Z,1.13
2018-08-10T10:13:11.128Z,1.20
2018-08-10T10:15:39.684Z,1.17
2018-08-10T10:18:09.979Z,1.00
2018-08-10T10:20:38.508Z,1.07
2018-08-10T10:23:07.113Z,1.30
2018-08-10T10:25:35.785Z,0.93
2018-08-10T10:28:04.528Z,1.20
2018-08-10T10:30:33.417Z,1.63
2018-08-10T10:33:03.504Z,1.40
2018-08-10T10:35:32.104Z,0.97
2018-08-10T10:38:00.698Z,1.40
2018-08-10T10:40:29.557Z,1.30
2018-08-10T10:42:58.171Z,1.40
2018-08-10T10:45:26.789Z,1.43
2018-08-10T10:47:55.368Z,1.70
2018-08-10T10:50:23.892Z,1.47
2018-08-10T10:52:52.559Z,1.53
2018-08-10T10:55:21.153Z,1.50
2018-08-10T10:57:49.846Z,1.57
2018-08-10T11:00:19.779Z,1.97
2018-08-10T11:02:48.744Z,1.50
2018-08-10T11:05:17.414Z,1.53
2018-08-10T11:07:45.995Z,1.60
2018-08-10T11:10:15.853Z,1.40
2018-08-10T11:12:44.391Z,1.60
2018-08-10T11:15:13.423Z,1.67
2018-08-10T11:17:41.908Z,1.90
2018-08-10T11:20:11.539Z,1.37
2018-08-10T11:22:40.711Z,1.57
2018-08-10T11:25:10.670Z,1.60
2018-08-10T11:27:39.501Z,1.80
2018-08-10T11:30:09.026Z,1.50
2018-08-10T11:32:37.803Z,1.73
2018-08-10T11:35:06.572Z,1.87
2018-08-10T11:37:35.218Z,1.50
2018-08-10T11:40:04.879Z,1.70
2018-08-10T11:42:33.438Z,1.60
2018-08-10T11:45:02.063Z,1.70
2018-08-10T11:47:30.564Z,1.80
2018-08-10T11:49:59.123Z,1.40
2018-08-10T11:52:27.877Z,1.80
2018-08-10T11:54:56.504Z,1.60
2018-08-10T11:57:25.085Z,1.50
2018-08-10T11:59:53.683Z,1.40
2018-08-10T12:02:22.228Z,1.53
2018-08-10T12:04:50.789Z,1.63
2018-08-10T12:07:19.421Z,1.47
2018-08-10T12:09:47.959Z,1.60
2018-08-10T12:12:16.570Z,1.57
2018-08-10T12:14:45.122Z,1.40
2018-08-10T12:17:13.632Z,1.60
2018-08-10T12:19:42.140Z,1.40
2018-08-10T12:22:10.630Z,1.27
2018-08-10T12:24:39.233Z,1.50
2018-08-10T12:27:08.249Z,1.50
2018-08-10T12:29:36.782Z,1.53
2018-08-10T12:32:05.308Z,1.23
2018-08-10T12:34:34.159Z,1.30
2018-08-10T12:37:02.666Z,1.47
2018-08-10T12:39:31.179Z,1.27
2018-08-10T12:41:59.686Z,1.80
2018-08-10T12:44:28.230Z,1.20
2018-08-10T12:46:56.810Z,1.43
2018-08-10T12:49:25.301Z,1.30
2018-08-10T12:51:53.816Z,1.70
2018-08-10T12:54:22.392Z,1.30
2018-08-10T12:56:50.948Z,1.23
2018-08-10T12:59:19.476Z,1.57
2018-08-10T13:01:48.103Z,1.57
2018-08-10T13:04:16.693Z,1.63
2018-08-10T13:06:45.346Z,1.10
2018-08-10T13:09:14.496Z,1.30
2018-08-10T13:11:43.017Z,1.40
2018-08-10T13:14:11.563Z,1.63
2018-08-10T13:16:40.118Z,1.50
2018-08-10T13:19:08.659Z,1.20
2018-08-10T13:21:37.197Z,1.23
2018-08-10T13:24:05.792Z,1.40
2018-08-10T13:26:34.292Z,1.67
2018-08-10T13:29:02.920Z,1.60
2018-08-10T13:31:31.507Z,1.30
2018-08-10T13:34:00.784Z,2.00
2018-08-10T13:36:29.323Z,1.23
2018-08-10T13:38:57.844Z,1.50
2018-08-10T13:41:26.435Z,1.63
2018-08-10T13:43:55.322Z,1.47
2018-08-10T13:46:24.110Z,1.57
2018-08-10T13:48:52.880Z,1.60
2018-08-10T13:51:21.735Z,1.60
2018-08-10T13:53:50.360Z,1.47
2018-08-10T13:56:19.148Z,1.40
2018-08-10T13:58:47.724Z,1.50
2018-08-10T14:01:16.349Z,1.23
2018-08-10T14:03:46.000Z,1.20
2018-08-10T14:06:15.054Z,1.37
2018-08-10T14:08:43.806Z,1.63
2018-08-10T14:11:12.872Z,1.20
2018-08-10T14:13:41.763Z,1.77
2018-08-10T14:16:11.376Z,1.40
2018-08-10T14:18:39.951Z,1.50
2018-08-10T14:21:08.936Z,1.40
2018-08-10T14:23:38.215Z,1.90
2018-08-10T14:26:07.055Z,1.60
2018-08-10T14:28:35.613Z,1.60
2018-08-10T14:31:04.384Z,1.40
2018-08-10T14:33:34.991Z,1.40
2018-08-10T14:36:03.968Z,1.53
2018-08-10T14:38:33.328Z,1.47
2018-08-10T14:41:02.035Z,1.53
2018-08-10T14:43:31.812Z,1.60
2018-08-10T14:46:00.440Z,1.33
2018-08-10T14:48:29.586Z,1.40
2018-08-10T14:50:58.341Z,1.40
2018-08-10T14:53:28.750Z,1.13
2018-08-10T14:55:57.741Z,1.40
2018-08-10T14:58:26.372Z,1.40
2018-08-10T15:00:54.908Z,1.30
2018-08-10T15:03:23.730Z,1.13
2018-08-10T15:05:53.830Z,1.33
2018-08-10T15:08:23.781Z,1.30
2018-08-10T15:10:52.431Z,1.30
2018-08-10T15:13:21.062Z,1.43
2018-08-10T15:15:49.658Z,1.20
2018-08-10T15:18:18.365Z,1.30
2018-08-10T15:20:46.909Z,1.90
2018-08-10T15:23:16.386Z,2.37
2018-08-10T15:25:45.345Z,1.80
2018-08-10T15:28:14.089Z,1.90
2018-08-10T15:30:42.654Z,1.50
2018-08-10T15:33:11.492Z,1.40
2018-08-10T15:35:40.222Z,1.30
2018-08-10T15:38:09.331Z,1.30
2018-08-10T15:40:38.064Z,1.50
2018-08-10T15:43:06.920Z,1.30
2018-08-10T15:45:35.536Z,1.37
2018-08-10T15:48:04.200Z,1.23
2018-08-10T15:50:32.834Z,1.40
2018-08-10T15:53:01.484Z,1.73
2018-08-10T15:55:30.539Z,1.77
2018-08-10T15:58:00.253Z,1.60
2018-08-10T16:00:32.206Z,1.40
2018-08-10T16:03:00.820Z,1.70
2018-08-10T16:05:29.490Z,1.60
2018-08-10T16:07:58.160Z,1.70
2018-08-10T16:10:27.032Z,1.50
2018-08-10T16:12:55.660Z,1.63
2018-08-10T16:15:24.397Z,1.60
2018-08-10T16:17:53.005Z,1.57
2018-08-10T16:20:22.600Z,1.70
2018-08-10T16:22:51.714Z,1.90
2018-08-10T16:25:20.387Z,2.00
2018-08-10T16:27:49.704Z,1.60
2018-08-10T16:30:18.434Z,1.63
2018-08-10T16:32:47.301Z,2.10
2018-08-10T16:35:16.503Z,1.80
2018-08-10T16:37:46.418Z,1.63
2018-08-10T16:40:16.785Z,1.97
2018-08-10T16:42:45.592Z,1.80
2018-08-10T16:45:14.805Z,1.87
2018-08-10T16:47:43.672Z,1.70
2018-08-10T16:50:15.376Z,2.10
2018-08-10T16:52:44.490Z,1.80
2018-08-10T16:55:14.903Z,2.10
2018-08-10T16:57:44.413Z,1.90
2018-08-10T17:00:15.755Z,2.10
2018-08-10T17:02:45.241Z,1.70
2018-08-10T17:05:13.938Z,2.10
2018-08-10T17:07:42.962Z,1.87
2018-08-10T17:10:11.891Z,1.67
2018-08-10T17:12:42.154Z,1.70
2018-08-10T17:15:19.584Z,1.90
2018-08-10T17:17:50.141Z,1.90
2018-08-10T17:20:20.341Z,1.53
2018-08-10T17:22:51.631Z,1.80
2018-08-10T17:25:21.234Z,2.07
2018-08-10T17:27:49.951Z,1.60
2018-08-10T17:30:19.832Z,2.00
2018-08-10T17:32:49.044Z,2.10
2018-08-10T17:35:18.637Z,1.97
2018-08-10T17:37:49.855Z,1.37
2018-08-10T17:40:18.479Z,1.77
2018-08-10T17:42:47.176Z,1.70
2018-08-10T17:45:17.431Z,2.10
2018-08-10T17:47:46.368Z,1.77
2018-08-10T17:50:18.627Z,1.70
2018-08-10T17:52:49.671Z,1.77
2018-08-10T17:55:18.813Z,1.90
2018-08-10T17:57:48.390Z,2.13
2018-08-10T18:00:21.768Z,1.90
2018-08-10T18:02:51.104Z,2.10
2018-08-10T18:05:19.871Z,2.33
2018-08-10T18:07:49.021Z,2.27
2018-08-10T18:10:18.560Z,2.03
2018-08-10T18:12:58.429Z,1.90
2018-08-10T18:15:27.182Z,2.10
2018-08-10T18:17:56.068Z,1.60
2018-08-10T18:20:24.843Z,1.90
2018-08-10T18:22:53.775Z,1.80
2018-08-10T18:25:23.200Z,1.70
2018-08-10T18:27:52.235Z,1.93
2018-08-10T18:30:23.877Z,2.10
2018-08-10T18:32:53.476Z,2.27
2018-08-10T18:35:22.224Z,2.10
2018-08-10T18:37:51.521Z,2.10
2018-08-10T18:40:20.479Z,2.60
2018-08-10T18:42:49.916Z,2.27
2018-08-10T18:45:19.778Z,2.10
2018-08-10T18:47:48.584Z,1.77
2018-08-10T18:50:18.076Z,1.90
2018-08-10T18:52:46.864Z,1.70
2018-08-10T18:55:21.156Z,2.00
2018-08-10T18:57:50.141Z,2.07
2018-08-10T19:00:20.642Z,2.23
2018-08-10T19:02:49.612Z,2.17
2018-08-10T19:05:18.624Z,2.40
2018-08-10T19:07:48.147Z,2.30
2018-08-10T19:10:20.581Z,2.27
2018-08-10T19:12:49.584Z,2.17
2018-08-10T19:15:18.360Z,2.17
2018-08-10T19:17:47.317Z,2.17
2018-08-10T19:20:16.458Z,2.10
2018-08-10T19:22:45.680Z,1.87
2018-08-10T19:25:15.283Z,2.07
2018-08-10T19:27:43.949Z,2.60
2018-08-10T19:30:15.392Z,1.87
2018-08-10T19:32:45.695Z,1.77
2018-08-10T19:35:14.503Z,2.10
2018-08-10T19:37:43.277Z,2.20
2018-08-10T19:40:13.698Z,2.10
2018-08-10T19:42:43.850Z,2.60
2018-08-10T19:45:13.878Z,2.47
2018-08-10T19:47:42.992Z,2.23
2018-08-10T19:50:13.223Z,2.13
2018-08-10T19:52:42.007Z,2.03
2018-08-10T19:55:13.454Z,2.10
2018-08-10T19:57:42.321Z,1.90
2018-08-10T20:00:13.368Z,2.00
2018-08-10T20:02:41.942Z,1.93
2018-08-10T20:05:11.135Z,1.80
2018-08-10T20:07:39.983Z,2.00
2018-08-10T20:10:11.046Z,1.93
2018-08-10T20:12:39.700Z,1.63
2018-08-10T20:15:11.918Z,1.80
2018-08-10T20:17:41.442Z,2.07
2018-08-10T20:20:13.070Z,2.10
2018-08-10T20:22:41.840Z,2.10
2018-08-10T20:25:12.272Z,2.17
2018-08-10T20:27:41.026Z,2.00
2018-08-10T20:30:11.852Z,2.17
2018-08-10T20:32:40.542Z,2.03
2018-08-10T20:35:12.009Z,2.87
2018-08-10T20:37:42.394Z,2.20
2018-08-10T20:40:13.353Z,2.63
2018-08-10T20:42:42.281Z,2.63
2018-08-10T20:45:12.254Z,2.40
2018-08-10T20:47:40.825Z,2.50
2018-08-10T20:50:15.973Z,2.37
2018-08-10T20:52:45.193Z,2.30
2018-08-10T20:55:13.820Z,2.40
2018-08-10T20:57:43.363Z,2.43
2018-08-10T21:00:12.322Z,2.37
2018-08-10T21:02:42.782Z,2.27
2018-08-10T21:05:11.836Z,2.40
2018-08-10T21:07:40.618Z,2.00
2018-08-10T21:10:12.065Z,2.53
2018-08-10T21:12:41.309Z,2.27
2018-08-10T21:15:11.566Z,2.50
2018-08-10T21:17:40.853Z,2.40
2018-08-10T21:20:11.135Z,2.70
2018-08-10T21:22:39.743Z,2.50
2018-08-10T21:25:09.217Z,2.83
2018-08-10T21:27:38.178Z,2.90
2018-08-10T21:30:10.751Z,2.90
2018-08-10T21:32:39.364Z,2.57
2018-08-10T21:35:08.267Z,2.60
2018-08-10T21:37:37.269Z,2.40
2018-08-10T21:40:07.276Z,2.70
2018-08-10T21:42:35.764Z,2.60
2018-08-10T21:45:04.998Z,2.20
2018-08-10T21:47:34.458Z,2.60
2018-08-10T21:50:03.222Z,2.67
2018-08-10T21:52:31.678Z,2.40
2018-08-10T21:55:01.281Z,2.60
2018-08-10T21:57:29.861Z,2.60
2018-08-10T21:59:58.768Z,2.40
2018-08-10T22:02:27.313Z,2.73
2018-08-10T22:04:57.398Z,2.60
2018-08-10T22:07:27.229Z,2.70
2018-08-10T22:09:55.765Z,2.77
2018-08-10T22:12:24.280Z,2.60
2018-08-10T22:14:57.966Z,3.10
2018-08-10T22:17:31.857Z,2.67
2018-08-10T22:20:01.262Z,2.90
2018-08-10T22:22:31.277Z,2.60
2018-08-10T22:24:59.963Z,2.97
2018-08-10T22:27:28.609Z,2.40
2018-08-10T22:29:57.197Z,2.90
2018-08-10T22:32:25.917Z,2.80
2018-08-10T22:34:54.618Z,2.80
2018-08-10T22:37:23.446Z,3.00
2018-08-10T22:39:51.996Z,2.60
2018-08-10T22:42:20.566Z,3.03
2018-08-10T22:44:49.090Z,2.80
2018-08-10T22:47:17.677Z,3.10
2018-08-10T22:49:46.516Z,2.40
2018-08-10T22:52:15.057Z,2.87
2018-08-10T22:54:43.689Z,2.63
2018-08-10T22:57:12.352Z,2.90
2018-08-10T22:59:40.951Z,2.50
2018-08-10T23:02:09.623Z,2.80
2018-08-10T23:04:38.321Z,2.83
2018-08-10T23:07:07.066Z,2.90
2018-08-10T23:09:35.654Z,2.53
2018-08-10T23:12:04.330Z,2.80
2018-08-10T23:14:33.138Z,2.70
2018-08-10T23:17:01.789Z,2.50
2018-08-10T23:19:30.382Z,2.87
2018-08-10T23:21:58.931Z,3.10
2018-08-10T23:24:27.541Z,2.63
2018-08-10T23:26:56.165Z,2.47
2018-08-10T23:29:24.784Z,3.23
2018-08-10T23:31:53.653Z,3.13
2018-08-10T23:34:22.545Z,2.50
2018-08-10T23:36:51.333Z,3.30
2018-08-10T23:39:20.529Z,2.97
2018-08-10T23:41:49.302Z,3.20
2018-08-10T23:44:17.923Z,2.97
2018-08-10T23:46:46.771Z,2.80
2018-08-10T23:49:15.454Z,3.07
2018-08-10T23:51:44.280Z,3.03
2018-08-10T23:54:13.196Z,2.70
2018-08-10T23:56:42.054Z,2.37
2018-08-10T23:59:10.801Z,2.70
